Time;durP1;ratioP1;P1;durP2;ratioP2;P2;SDS_P1;SDS_P2;PMS_P1;PMS_P2;Temp;Humidity;BMP_temperature;BMP_pressure;BME280_temperature;BME280_humidity;BME280_pressure;Samples;Min_cycle;Max_cycle;Signal;HPM_P1;HPM_P2
2022/12/04 00:00:40;;;;;;;33.38;15.10;;;1.00;99.90;;;;;;5034068;28;20037;-55
2022/12/04 00:03:05;;;;;;;32.50;15.07;;;1.10;99.90;;;;;;5033763;28;20041;-55
2022/12/04 00:05:31;;;;;;;30.60;13.40;;;1.00;99.90;;;;;;5033912;28;20493;-54
2022/12/04 00:07:57;;;;;;;33.25;16.38;;;1.10;99.90;;;;;;5033674;28;20490;-55
2022/12/04 00:10:22;;;;;;;34.05;14.95;;;1.00;99.90;;;;;;5034088;28;20053;-52
2022/12/04 00:12:48;;;;;;;35.03;15.43;;;0.90;99.90;;;;;;5033607;28;20053;-51
2022/12/04 00:15:14;;;;;;;33.13;16.80;;;1.00;99.90;;;;;;5015835;28;20505;-52
2022/12/04 00:17:39;;;;;;;31.90;15.32;;;0.90;99.90;;;;;;5033714;28;20048;-51
2022/12/04 00:20:06;;;;;;;38.20;15.35;;;0.90;99.90;;;;;;5033368;28;20513;-51
2022/12/04 00:22:32;;;;;;;35.85;15.27;;;0.90;99.90;;;;;;5033418;28;20071;-51
2022/12/04 00:24:58;;;;;;;32.03;14.07;;;1.00;99.90;;;;;;5033416;28;20470;-51
2022/12/04 00:27:23;;;;;;;31.13;15.18;;;1.00;99.90;;;;;;5033145;28;20101;-52
2022/12/04 00:29:49;;;;;;;33.65;15.27;;;1.00;99.90;;;;;;5033137;28;20057;-50
2022/12/04 00:32:15;;;;;;;30.65;14.60;;;1.00;99.90;;;;;;5015504;28;20065;-51
2022/12/04 00:34:40;;;;;;;31.10;14.88;;;1.00;99.90;;;;;;5033119;28;20045;-51
2022/12/04 00:37:06;;;;;;;34.47;13.85;;;1.00;99.90;;;;;;5033214;28;20048;-55
2022/12/04 00:39:32;;;;;;;32.00;14.35;;;1.00;99.90;;;;;;5032922;28;20045;-51
2022/12/04 00:41:57;;;;;;;33.15;16.25;;;1.00;99.90;;;;;;5032834;28;20037;-52
2022/12/04 00:44:23;;;;;;;32.45;15.57;;;1.00;99.90;;;;;;5014868;28;20111;-51
2022/12/04 00:46:48;;;;;;;32.63;15.25;;;1.00;99.90;;;;;;5032857;28;20072;-51
2022/12/04 00:49:14;;;;;;;32.42;15.13;;;1.00;99.90;;;;;;5032642;28;20037;-51
2022/12/04 00:51:40;;;;;;;28.75;14.55;;;1.00;99.90;;;;;;5033270;28;20047;-52
2022/12/04 00:54:05;;;;;;;32.75;15.07;;;1.00;99.90;;;;;;5014767;28;20044;-53
2022/12/04 00:56:31;;;;;;;30.38;14.90;;;1.00;99.90;;;;;;5040616;28;20028;-54
2022/12/04 00:58:58;;;;;;;29.95;14.10;;;1.00;99.90;;;;;;5052314;28;20470;-51
2022/12/04 01:01:25;;;;;;;35.13;14.98;;;1.10;99.90;;;;;;5052642;28;20509;-54
2022/12/04 01:03:50;;;;;;;34.70;15.07;;;1.00;99.90;;;;;;5052454;28;20049;-51
2022/12/04 01:06:20;;;;;;;34.08;15.32;;;1.00;99.90;;;;;;5052302;28;20082;-55
2022/12/04 01:08:48;;;;;;;31.52;14.32;;;1.00;99.90;;;;;;5052412;28;20033;-55
2022/12/04 01:11:14;;;;;;;36.35;16.98;;;1.10;99.90;;;;;;5052400;28;20049;-55
2022/12/04 01:13:40;;;;;;;36.38;15.35;;;1.10;99.90;;;;;;5045667;28;20059;-56
2022/12/04 01:16:05;;;;;;;29.70;14.32;;;1.10;99.90;;;;;;5032421;28;20037;-56
2022/12/04 01:18:31;;;;;;;35.90;14.40;;;1.00;99.90;;;;;;5015098;28;20034;-54
2022/12/04 01:20:57;;;;;;;32.80;15.32;;;0.90;99.90;;;;;;5032182;28;20033;-53
2022/12/04 01:23:22;;;;;;;32.22;15.40;;;1.00;99.90;;;;;;5032421;28;20051;-54
2022/12/04 01:25:56;;;;;;;34.25;15.02;;;1.00;99.90;;;;;;5014606;28;20056;-54
2022/12/04 01:28:24;;;;;;;34.50;15.27;;;0.80;99.90;;;;;;5032311;28;20052;-53
2022/12/04 01:31:03;;;;;;;42.75;18.38;;;0.90;99.90;;;;;;5032338;28;20053;-54
2022/12/04 01:33:30;;;;;;;35.88;15.65;;;0.90;99.90;;;;;;5031986;28;20371;-55
2022/12/04 01:35:57;;;;;;;36.33;15.98;;;0.80;99.90;;;;;;5032010;28;20524;-52
2022/12/04 01:38:23;;;;;;;36.35;16.30;;;0.70;99.90;;;;;;5032014;28;20041;-52
2022/12/04 01:40:49;;;;;;;44.75;17.75;;;0.90;99.90;;;;;;5032951;28;20033;-51
2022/12/04 01:43:16;;;;;;;37.08;16.50;;;0.80;99.90;;;;;;5032011;28;20052;-52
2022/12/04 01:45:46;;;;;;;35.97;15.23;;;0.70;99.90;;;;;;5032050;28;20045;-53
2022/12/04 01:48:18;;;;;;;37.22;16.60;;;0.70;99.90;;;;;;5032312;28;20398;-52
2022/12/04 01:50:44;;;;;;;41.50;17.80;;;0.70;99.90;;;;;;5031867;28;20037;-51
2022/12/04 01:53:10;;;;;;;35.58;15.65;;;0.80;99.90;;;;;;5032313;28;20120;-52
2022/12/04 01:55:36;;;;;;;39.40;17.42;;;0.80;99.90;;;;;;5032566;28;20048;-52
2022/12/04 01:58:02;;;;;;;42.75;17.33;;;0.90;99.90;;;;;;5051746;28;20053;-53
2022/12/04 02:00:29;;;;;;;37.20;17.88;;;0.80;99.90;;;;;;5051905;28;20066;-52
2022/12/04 02:02:56;;;;;;;37.38;16.92;;;0.80;99.90;;;;;;5051634;28;20052;-54
2022/12/04 02:05:22;;;;;;;38.50;16.30;;;0.90;99.90;;;;;;5051716;28;20068;-56
2022/12/04 02:07:51;;;;;;;42.08;17.60;;;0.90;99.90;;;;;;5051630;28;20048;-55
2022/12/04 02:10:23;;;;;;;35.88;16.85;;;0.90;99.90;;;;;;5051727;28;20070;-53
2022/12/04 02:13:04;;;;;;;34.40;16.00;;;1.00;99.90;;;;;;5033956;28;20045;-51
2022/12/04 02:15:52;;;;;;;40.85;17.08;;;0.90;99.90;;;;;;5051613;28;20048;-51
2022/12/04 02:18:47;;;;;;;36.80;17.40;;;1.00;99.90;;;;;;5051537;28;20049;-52
2022/12/04 02:21:23;;;;;;;37.95;16.42;;;0.90;99.90;;;;;;5051861;28;20053;-53
2022/12/04 02:24:06;;;;;;;37.22;15.82;;;0.90;99.90;;;;;;5055887;28;20499;-54
2022/12/04 02:26:58;;;;;;;37.67;15.85;;;0.90;99.90;;;;;;5037184;28;20061;-51
2022/12/04 02:29:53;;;;;;;37.03;15.75;;;1.00;99.90;;;;;;5055326;28;20057;-52
2022/12/04 02:32:46;;;;;;;36.53;16.38;;;1.00;99.90;;;;;;5055168;28;20521;-55
2022/12/04 02:35:20;;;;;;;36.83;15.75;;;1.00;99.90;;;;;;5055140;28;20068;-51
2022/12/04 02:37:52;;;;;;;35.78;17.50;;;1.00;99.90;;;;;;5055076;28;20052;-51
2022/12/04 02:40:20;;;;;;;;;;;1.00;99.90;;;;;;5055564;28;20056;-51
2022/12/04 02:42:57;;;;;;;35.03;15.93;;;1.00;99.90;;;;;;5055078;28;19987;-51
2022/12/04 02:45:39;;;;;;;36.47;17.23;;;1.00;99.90;;;;;;5037332;28;20087;-51
2022/12/04 02:48:06;;;;;;;40.15;16.98;;;1.10;99.90;;;;;;5055026;28;20033;-52
2022/12/04 02:50:35;;;;;;;39.03;15.98;;;1.00;99.90;;;;;;5055321;28;20037;-54
2022/12/04 02:53:20;;;;;;;37.15;16.35;;;0.90;99.90;;;;;;5054807;28;20044;-51
2022/12/04 02:55:51;;;;;;;38.17;15.90;;;1.00;99.90;;;;;;5054965;28;20037;-52
2022/12/04 02:58:32;;;;;;;35.83;16.33;;;1.00;99.90;;;;;;5036935;28;20052;-54
2022/12/04 03:01:01;;;;;;;36.88;17.80;;;1.00;99.90;;;;;;5054722;28;20033;-52
2022/12/04 03:03:29;;;;;;;41.38;18.80;;;1.00;99.90;;;;;;5054646;28;20492;-53
2022/12/04 03:06:04;;;;;;;36.72;16.58;;;1.00;99.90;;;;;;5036609;28;20036;-54
2022/12/04 03:08:38;;;;;;;42.42;18.55;;;1.00;99.90;;;;;;5054632;28;20481;-53
2022/12/04 03:11:04;;;;;;;44.72;17.13;;;1.00;99.90;;;;;;5054757;28;20045;-56
2022/12/04 03:13:43;;;;;;;38.40;17.55;;;1.00;99.90;;;;;;5054814;28;20049;-55
2022/12/04 03:16:24;;;;;;;40.33;18.33;;;0.90;99.90;;;;;;5054603;28;20433;-54
2022/12/04 03:19:13;;;;;;;42.33;18.42;;;0.90;99.90;;;;;;5054467;28;20041;-55
2022/12/04 03:21:45;;;;;;;40.30;18.02;;;0.90;99.90;;;;;;5054671;28;20037;-53
2022/12/04 03:24:23;;;;;;;42.50;19.95;;;0.90;99.90;;;;;;5054743;28;20075;-54
2022/12/04 03:27:07;;;;;;;41.63;19.38;;;0.80;99.90;;;;;;5054379;28;20056;-51
2022/12/04 03:29:41;;;;;;;41.33;19.20;;;0.80;99.90;;;;;;5054741;28;20045;-55
2022/12/04 03:32:20;;;;;;;43.38;18.88;;;0.80;99.90;;;;;;5054175;28;20452;-56
2022/12/04 03:34:56;;;;;;;46.85;20.13;;;0.80;99.90;;;;;;5054252;28;20047;-52
2022/12/04 03:37:58;;;;;;;46.17;21.00;;;0.80;99.90;;;;;;5054449;28;20041;-51
2022/12/04 03:40:42;;;;;;;46.08;20.23;;;0.70;99.90;;;;;;5054438;28;20493;-54
2022/12/04 03:43:17;;;;;;;42.22;20.00;;;0.80;99.90;;;;;;5054325;28;20071;-52
2022/12/04 03:45:53;;;;;;;46.63;21.23;;;0.80;99.90;;;;;;5036148;28;20117;-52
2022/12/04 03:48:30;;;;;;;48.28;22.55;;;0.80;99.90;;;;;;5054152;28;20048;-53
2022/12/04 03:51:05;;;;;;;47.40;20.70;;;0.70;99.90;;;;;;5053974;28;20160;-54
2022/12/04 03:53:36;;;;;;;47.55;21.30;;;0.70;99.90;;;;;;5053681;28;20095;-52
2022/12/04 03:56:28;;;;;;;47.33;21.48;;;0.70;99.90;;;;;;5050194;28;20425;-56
2022/12/04 03:59:08;;;;;;;45.78;22.00;;;0.70;99.90;;;;;;5016054;28;20127;-54
2022/12/04 04:01:43;;;;;;;46.17;20.38;;;0.70;99.90;;;;;;5033834;28;20029;-50
2022/12/04 04:04:13;;;;;;;48.85;23.73;;;0.70;99.90;;;;;;5033817;28;20397;-53
2022/12/04 04:06:44;;;;;;;52.17;23.83;;;0.60;99.90;;;;;;5033781;28;20086;-53
2022/12/04 04:09:17;;;;;;;52.35;23.95;;;0.60;99.90;;;;;;5033642;28;20514;-53
2022/12/04 04:11:48;;;;;;;49.33;22.20;;;0.60;99.90;;;;;;5033490;28;20045;-55
2022/12/04 04:25:31;;;;;;;50.38;23.42;;;0.60;99.90;;;;;;5033584;28;20106;-55
2022/12/04 04:27:57;;;;;;;50.92;23.35;;;0.60;99.90;;;;;;5032912;28;20060;-51
2022/12/04 04:30:24;;;;;;;46.33;23.55;;;0.60;99.90;;;;;;5033167;28;20045;-55
2022/12/04 04:33:15;;;;;;;46.10;21.52;;;0.60;99.90;;;;;;5033023;28;20079;-54
2022/12/04 04:36:05;;;;;;;47.40;22.05;;;0.60;99.90;;;;;;5033060;28;20049;-51
2022/12/04 04:38:40;;;;;;;46.65;21.65;;;0.60;99.90;;;;;;5033037;28;20094;-52
2022/12/04 04:41:32;;;;;;;43.28;21.08;;;0.60;99.90;;;;;;5033301;28;20041;-51
2022/12/04 04:44:21;;;;;;;49.70;23.13;;;0.70;99.90;;;;;;5032905;28;20060;-52
2022/12/04 04:46:53;;;;;;;50.90;21.90;;;0.60;99.90;;;;;;5015375;28;20284;-53
2022/12/04 04:49:24;;;;;;;51.63;23.42;;;0.60;99.90;;;;;;5033035;28;20041;-52
2022/12/04 04:51:51;;;;;;;51.10;22.67;;;0.60;99.90;;;;;;5033188;28;20033;-53
2022/12/04 04:54:18;;;;;;;49.03;21.08;;;0.60;99.90;;;;;;5032885;28;20148;-52
2022/12/04 04:56:45;;;;;;;44.38;20.60;;;0.50;99.90;;;;;;5042697;28;20124;-53
2022/12/04 04:59:11;;;;;;;48.88;21.98;;;0.60;99.90;;;;;;5052628;28;20362;-51
2022/12/04 05:01:38;;;;;;;50.17;22.08;;;0.70;99.90;;;;;;5035025;28;20045;-51
2022/12/04 05:04:05;;;;;;;50.40;23.63;;;0.60;99.90;;;;;;5052320;28;20041;-52
2022/12/04 05:06:30;;;;;;;47.80;21.75;;;0.60;99.90;;;;;;5052652;28;20044;-52
2022/12/04 05:08:56;;;;;;;45.15;20.75;;;0.70;99.90;;;;;;5052450;28;20147;-53
2022/12/04 05:11:22;;;;;;;48.30;22.42;;;0.60;99.90;;;;;;5052359;28;20167;-54
2022/12/04 05:13:47;;;;;;;47.88;22.10;;;0.70;99.90;;;;;;5052415;28;20076;-51
2022/12/04 05:16:14;;;;;;;32.47;13.43;;;0.70;99.90;;;;;;5052496;28;20044;-51
2022/12/04 05:18:42;;;;;;;40.55;16.58;;;0.70;99.90;;;;;;5052225;28;20056;-55
2022/12/04 05:21:15;;;;;;;38.33;15.07;;;0.60;99.90;;;;;;5052186;28;20037;-53
2022/12/04 05:23:41;;;;;;;36.55;15.68;;;0.60;99.90;;;;;;5052399;28;20355;-54
2022/12/04 05:26:07;;;;;;;36.80;15.85;;;0.60;99.90;;;;;;5051944;28;20056;-53
2022/12/04 05:28:32;;;;;;;35.85;15.15;;;0.70;99.90;;;;;;5052057;28;20515;-55
2022/12/04 05:31:02;;;;;;;32.65;14.50;;;0.60;99.90;;;;;;5052510;28;20041;-54
2022/12/04 05:33:28;;;;;;;39.15;16.02;;;0.60;99.90;;;;;;5051941;28;20552;-55
2022/12/04 05:36:06;;;;;;;36.70;14.07;;;0.60;99.90;;;;;;5052087;28;20072;-54
2022/12/04 05:38:32;;;;;;;36.42;14.95;;;0.60;99.90;;;;;;5051840;28;20489;-54
2022/12/04 05:40:59;;;;;;;33.72;14.52;;;0.70;99.90;;;;;;5052352;28;20044;-53
2022/12/04 05:43:25;;;;;;;39.72;16.83;;;0.60;99.90;;;;;;5034094;28;20127;-55
2022/12/04 05:45:52;;;;;;;37.35;16.23;;;0.60;99.90;;;;;;5051240;28;20405;-55
2022/12/04 05:48:17;;;;;;;34.97;15.30;;;0.70;99.90;;;;;;5052084;28;20075;-53
2022/12/04 05:50:43;;;;;;;36.95;15.77;;;0.70;99.90;;;;;;5052029;28;20041;-53
2022/12/04 05:53:09;;;;;;;32.30;15.27;;;0.70;99.90;;;;;;5038339;28;20069;-53
2022/12/04 05:55:36;;;;;;;37.85;15.57;;;0.70;99.90;;;;;;5031951;28;20045;-55
2022/12/04 05:58:01;;;;;;;33.63;14.88;;;0.70;99.90;;;;;;5055323;28;20037;-53
2022/12/04 06:00:28;;;;;;;38.28;16.00;;;0.70;99.90;;;;;;5056036;28;20512;-54
2022/12/04 06:02:53;;;;;;;31.85;15.68;;;0.70;99.90;;;;;;5056070;28;20052;-52
2022/12/04 06:05:19;;;;;;;31.83;14.90;;;0.70;99.90;;;;;;5055802;28;20045;-53
2022/12/04 06:07:45;;;;;;;34.45;15.50;;;0.70;99.90;;;;;;5037908;28;20045;-52
2022/12/04 06:10:10;;;;;;;36.72;15.38;;;0.70;99.90;;;;;;5056068;28;20076;-53
2022/12/04 06:12:36;;;;;;;29.05;13.05;;;0.70;99.90;;;;;;5055682;28;20045;-55
2022/12/04 06:15:02;;;;;;;33.92;15.13;;;0.80;99.90;;;;;;5056048;28;20541;-54
2022/12/04 06:17:28;;;;;;;38.42;15.35;;;0.80;99.90;;;;;;5055634;28;20037;-52
2022/12/04 06:19:54;;;;;;;30.98;14.65;;;0.80;99.90;;;;;;5055828;28;20068;-54
2022/12/04 06:22:20;;;;;;;32.00;14.88;;;0.80;99.90;;;;;;5055488;28;20049;-54
2022/12/04 06:24:46;;;;;;;33.08;16.27;;;0.80;99.90;;;;;;5037578;28;20370;-54
2022/12/04 06:27:12;;;;;;;35.78;15.52;;;0.80;99.90;;;;;;5054940;28;20141;-52
2022/12/04 06:29:37;;;;;;;33.22;14.63;;;0.70;99.90;;;;;;5055230;28;20545;-52
2022/12/04 06:32:03;;;;;;;38.17;14.95;;;0.80;99.90;;;;;;5037673;28;20040;-52
2022/12/04 06:34:29;;;;;;;33.63;14.98;;;0.80;99.90;;;;;;5055431;28;20099;-52
2022/12/04 06:36:55;;;;;;;35.35;15.43;;;0.80;99.90;;;;;;5037664;28;20469;-52
2022/12/04 06:39:21;;;;;;;30.75;15.50;;;0.80;99.90;;;;;;5055398;28;20443;-52
2022/12/04 06:41:46;;;;;;;35.63;14.77;;;0.80;99.90;;;;;;5055429;28;20044;-52
2022/12/04 06:44:13;;;;;;;30.42;13.68;;;0.80;99.90;;;;;;5055188;28;20048;-53
2022/12/04 06:46:39;;;;;;;34.65;14.15;;;0.70;99.90;;;;;;5037392;28;20040;-51
2022/12/04 06:49:04;;;;;;;34.05;13.98;;;0.80;99.90;;;;;;5055113;28;20048;-56
2022/12/04 06:51:33;;;;;;;35.05;14.68;;;0.80;99.90;;;;;;5055384;28;20059;-56
2022/12/04 06:53:59;;;;;;;32.03;13.13;;;0.80;99.90;;;;;;5055106;28;20114;-55
2022/12/04 06:56:28;;;;;;;28.25;13.65;;;0.80;99.90;;;;;;5054827;28;20072;-55
2022/12/04 06:58:56;;;;;;;37.40;16.13;;;0.90;99.90;;;;;;5055216;28;20037;-56
2022/12/04 07:01:24;;;;;;;30.73;14.07;;;0.80;99.90;;;;;;5054805;28;20039;-52
2022/12/04 07:03:50;;;;;;;30.02;13.43;;;0.80;99.90;;;;;;5055140;28;20037;-51
2022/12/04 07:06:24;;;;;;;38.42;15.18;;;0.90;99.90;;;;;;5054759;28;20041;-55
2022/12/04 07:08:52;;;;;;;32.75;15.05;;;0.90;99.90;;;;;;5054572;28;20047;-51
2022/12/04 07:11:19;;;;;;;32.55;13.88;;;0.90;99.90;;;;;;5036705;28;20401;-53
2022/12/04 07:13:45;;;;;;;33.65;15.63;;;0.90;99.90;;;;;;5036910;28;20041;-55
2022/12/04 07:16:12;;;;;;;34.72;13.95;;;0.90;99.90;;;;;;5053983;28;20048;-52
2022/12/04 07:18:38;;;;;;;33.60;15.13;;;0.80;99.90;;;;;;5053806;28;20448;-53
2022/12/04 07:21:13;;;;;;;34.25;15.05;;;0.90;99.90;;;;;;5053824;28;20041;-55
2022/12/04 07:23:39;;;;;;;35.70;14.68;;;0.80;99.90;;;;;;5053751;28;20048;-53
2022/12/04 07:26:11;;;;;;;36.53;14.88;;;0.80;99.90;;;;;;5053434;28;20466;-52
2022/12/04 07:28:37;;;;;;;34.55;14.32;;;0.80;99.90;;;;;;5053780;28;20052;-53
2022/12/04 07:31:05;;;;;;;38.17;16.67;;;0.80;99.90;;;;;;5053789;28;20484;-56
2022/12/04 07:33:31;;;;;;;47.67;20.10;;;0.80;99.90;;;;;;5053385;28;20094;-55
2022/12/04 07:35:57;;;;;;;43.30;19.90;;;0.80;99.90;;;;;;5053301;28;20041;-55
2022/12/04 07:38:23;;;;;;;46.10;21.50;;;0.90;99.90;;;;;;5053355;28;20049;-53
2022/12/04 07:40:49;;;;;;;45.85;20.67;;;0.80;99.90;;;;;;5053128;28;20037;-52
2022/12/04 07:43:14;;;;;;;40.58;19.42;;;0.80;99.90;;;;;;5053589;28;20076;-53
2022/12/04 07:45:40;;;;;;;48.17;21.52;;;1.00;99.90;;;;;;5053278;28;20045;-52
2022/12/04 07:48:06;;;;;;;50.08;22.60;;;0.90;99.90;;;;;;5053371;28;20083;-54
2022/12/04 07:50:31;;;;;;;47.83;21.80;;;0.90;99.90;;;;;;5053297;28;20037;-54
2022/12/04 07:52:57;;;;;;;52.55;22.23;;;0.90;99.90;;;;;;5052970;28;20044;-55
2022/12/04 07:55:23;;;;;;;43.13;19.10;;;0.90;99.90;;;;;;5053093;28;20106;-53
2022/12/04 07:57:48;;;;;;;44.50;20.98;;;1.00;99.90;;;;;;5016492;28;20046;-52
2022/12/04 08:00:14;;;;;;;42.55;20.27;;;1.00;99.90;;;;;;5033157;28;20033;-52
2022/12/04 08:02:40;;;;;;;46.72;22.67;;;1.00;99.90;;;;;;5015042;28;20680;-51
2022/12/04 08:05:06;;;;;;;37.03;18.33;;;1.00;99.90;;;;;;5015322;28;20042;-53
2022/12/04 08:07:32;;;;;;;49.17;21.23;;;1.00;99.90;;;;;;5032966;28;20096;-54
2022/12/04 08:09:57;;;;;;;51.28;22.83;;;1.00;99.90;;;;;;5032988;28;20080;-54
2022/12/04 08:12:23;;;;;;;40.75;19.58;;;1.00;99.90;;;;;;5033067;28;20041;-52
2022/12/04 08:14:49;;;;;;;46.22;21.70;;;1.00;99.90;;;;;;5032782;28;20056;-53
2022/12/04 08:17:15;;;;;;;44.92;20.50;;;1.00;99.90;;;;;;5032410;28;20038;-56
2022/12/04 08:19:41;;;;;;;38.08;17.85;;;1.10;99.90;;;;;;5031297;28;20037;-52
2022/12/04 08:22:07;;;;;;;47.40;23.17;;;1.10;99.90;;;;;;5031813;28;20501;-51
2022/12/04 08:24:33;;;;;;;38.15;17.73;;;1.10;99.90;;;;;;4997941;28;20050;-51
2022/12/04 08:26:58;;;;;;;47.25;22.90;;;1.10;99.90;;;;;;5032206;28;20065;-51
2022/12/04 08:29:24;;;;;;;49.05;22.20;;;1.10;99.90;;;;;;5032586;28;20045;-50
2022/12/04 08:31:50;;;;;;;45.05;20.40;;;1.20;99.90;;;;;;5032626;28;20116;-52
2022/12/04 08:34:16;;;;;;;43.53;20.40;;;1.10;99.90;;;;;;5032462;28;20461;-52
2022/12/04 08:36:41;;;;;;;50.03;22.10;;;1.10;99.90;;;;;;5032349;28;20482;-51
2022/12/04 08:39:08;;;;;;;41.15;19.02;;;1.10;99.90;;;;;;5032489;28;20037;-55
2022/12/04 08:41:34;;;;;;;44.10;21.00;;;1.10;99.90;;;;;;5032500;28;20049;-55
2022/12/04 08:43:59;;;;;;;45.38;21.40;;;1.20;99.90;;;;;;5014248;28;20041;-52
2022/12/04 08:46:26;;;;;;;39.00;18.65;;;1.20;99.90;;;;;;5032081;28;20048;-52
2022/12/04 08:48:53;;;;;;;46.70;20.80;;;1.20;99.90;;;;;;5014519;28;20119;-55
2022/12/04 08:51:21;;;;;;;42.45;19.27;;;1.20;99.90;;;;;;5032212;28;20053;-52
2022/12/04 08:53:51;;;;;;;42.25;19.63;;;1.30;99.90;;;;;;5031819;28;20099;-52
2022/12/04 08:56:16;;;;;;;42.90;18.55;;;1.20;99.90;;;;;;5037811;28;20040;-53
2022/12/04 08:58:42;;;;;;;39.47;18.33;;;1.30;99.90;;;;;;5052031;28;20037;-55
2022/12/04 09:01:10;;;;;;;41.70;19.90;;;1.30;99.90;;;;;;5034123;28;20040;-53
2022/12/04 09:03:36;;;;;;;44.63;20.30;;;1.40;99.90;;;;;;5052115;28;20041;-54
2022/12/04 09:06:04;;;;;;;40.55;19.20;;;1.40;99.90;;;;;;5051705;28;20082;-55
2022/12/04 09:08:31;;;;;;;40.35;18.15;;;1.30;99.90;;;;;;5052004;28;20080;-51
2022/12/04 09:11:07;;;;;;;43.72;18.50;;;1.40;99.90;;;;;;5051948;28;20436;-56
2022/12/04 09:13:33;;;;;;;44.38;18.50;;;1.30;99.90;;;;;;5051714;28;20044;-55
2022/12/04 09:16:01;;;;;;;41.63;19.42;;;1.30;99.90;;;;;;5051940;28;20048;-54
2022/12/04 09:18:27;;;;;;;41.05;18.40;;;1.40;99.90;;;;;;5033438;28;20071;-55
2022/12/04 09:20:57;;;;;;;40.90;17.88;;;1.40;99.90;;;;;;5051527;28;20028;-53
2022/12/04 09:23:24;;;;;;;43.85;20.10;;;1.40;99.90;;;;;;5042439;28;20445;-52
2022/12/04 09:25:49;;;;;;;36.60;17.55;;;1.40;99.90;;;;;;5025146;28;20037;-53
2022/12/04 09:28:15;;;;;;;42.42;19.50;;;1.50;99.90;;;;;;5023224;28;20061;-53
2022/12/04 09:30:41;;;;;;;42.58;19.90;;;1.50;99.90;;;;;;5038707;28;20051;-53
2022/12/04 09:33:06;;;;;;;38.58;17.30;;;1.60;99.90;;;;;;5036289;28;20100;-54
2022/12/04 09:35:33;;;;;;;38.42;17.45;;;1.60;99.90;;;;;;5031085;28;20120;-52
2022/12/04 09:37:59;;;;;;;42.53;18.63;;;1.60;99.90;;;;;;5038397;28;20394;-53
2022/12/04 09:40:31;;;;;;;43.15;18.48;;;1.60;99.90;;;;;;5051099;28;20037;-52
2022/12/04 09:43:12;;;;;;;38.00;17.30;;;1.70;99.90;;;;;;5051131;28;20485;-54
2022/12/04 09:45:52;;;;;;;35.47;18.10;;;1.70;99.90;;;;;;5033521;28;20420;-55
2022/12/04 09:48:20;;;;;;;41.03;18.38;;;1.70;99.90;;;;;;5051413;28;20069;-52
2022/12/04 09:50:47;;;;;;;35.50;16.55;;;1.80;99.90;;;;;;5051454;28;20047;-52
2022/12/04 09:53:21;;;;;;;40.38;17.33;;;1.80;99.90;;;;;;5050820;28;20037;-53
2022/12/04 09:56:02;;;;;;;40.25;18.52;;;1.90;99.90;;;;;;5049249;28;20080;-55
2022/12/04 09:58:49;;;;;;;39.67;17.90;;;1.90;99.90;;;;;;5031168;28;20065;-55
2022/12/04 10:01:45;;;;;;;37.50;16.70;;;1.90;99.90;;;;;;5030813;28;20049;-54
2022/12/04 10:04:12;;;;;;;39.15;18.38;;;1.90;99.90;;;;;;5030915;28;20092;-54
2022/12/04 10:06:52;;;;;;;39.58;17.85;;;2.00;99.90;;;;;;5031122;28;20094;-53
2022/12/04 10:09:38;;;;;;;35.05;16.90;;;2.00;99.90;;;;;;5031220;28;20045;-54
2022/12/04 10:12:33;;;;;;;32.75;15.52;;;2.10;99.90;;;;;;5030915;28;20060;-53
2022/12/04 10:15:09;;;;;;;26.92;13.85;;;2.10;99.90;;;;;;4985341;28;20057;-54
2022/12/04 10:17:51;;;;;;;32.42;15.30;;;2.20;99.90;;;;;;5030477;28;20418;-53
2022/12/04 10:20:47;;;;;;;29.67;15.75;;;2.20;99.90;;;;;;5030714;28;20148;-52
2022/12/04 10:23:39;;;;;;;28.73;14.90;;;2.30;99.90;;;;;;5030894;28;20420;-51
2022/12/04 10:26:15;;;;;;;31.80;15.13;;;2.30;99.90;;;;;;5030465;28;20107;-51
2022/12/04 10:28:45;;;;;;;32.95;15.80;;;2.30;99.90;;;;;;5030753;28;20042;-52
2022/12/04 10:31:13;;;;;;;33.67;15.77;;;2.20;99.90;;;;;;5013491;28;20049;-53
2022/12/04 10:34:01;;;;;;;33.53;15.05;;;2.20;99.90;;;;;;5030910;28;20044;-52
2022/12/04 10:36:34;;;;;;;31.77;14.75;;;2.20;99.90;;;;;;5031094;28;20045;-56
2022/12/04 10:39:15;;;;;;;32.45;15.73;;;2.30;99.90;;;;;;5031069;28;20120;-55
2022/12/04 10:41:58;;;;;;;32.45;14.60;;;2.30;99.90;;;;;;5013291;28;20080;-55
2022/12/04 10:44:24;;;;;;;32.08;14.23;;;2.30;99.90;;;;;;5016600;28;20059;-54
2022/12/04 10:46:54;;;;;;;31.55;14.27;;;2.30;99.90;;;;;;5016951;28;20045;-54
2022/12/04 10:49:24;;;;;;;30.52;14.93;;;2.30;99.90;;;;;;5034215;28;20045;-55
2022/12/04 10:51:50;;;;;;;33.17;15.63;;;2.30;99.90;;;;;;5034236;28;20038;-54
2022/12/04 10:54:25;;;;;;;27.80;13.13;;;2.40;99.90;;;;;;5016213;28;20355;-54
2022/12/04 10:56:57;;;;;;;31.85;15.32;;;2.40;99.90;;;;;;5027014;28;20477;-52
2022/12/04 10:59:24;;;;;;;29.13;14.27;;;2.40;99.90;;;;;;5053912;28;20064;-54
2022/12/04 11:01:57;;;;;;;29.08;12.68;;;2.50;99.90;;;;;;5053733;28;20511;-54
2022/12/04 11:04:25;;;;;;;25.83;13.48;;;2.40;99.90;;;;;;5053565;28;20090;-56
2022/12/04 11:07:05;;;;;;;22.45;10.48;;;2.50;99.90;;;;;;5054050;28;20047;-52
2022/12/04 11:09:31;;;;;;;18.42;9.40;;;2.50;99.90;;;;;;5053642;28;20037;-55
2022/12/04 11:12:15;;;;;;;19.08;8.95;;;2.50;99.90;;;;;;5053905;28;20033;-55
2022/12/04 11:14:40;;;;;;;23.67;10.35;;;2.60;99.90;;;;;;5054100;28;20045;-55
2022/12/04 11:17:06;;;;;;;19.70;9.85;;;2.60;99.90;;;;;;5054156;28;20037;-53
2022/12/04 11:19:35;;;;;;;19.20;10.95;;;2.60;99.90;;;;;;5053649;28;20043;-52
2022/12/04 11:22:12;;;;;;;20.98;10.27;;;2.60;99.90;;;;;;5035969;28;20501;-53
2022/12/04 11:24:39;;;;;;;22.58;10.75;;;2.60;99.90;;;;;;5053805;28;20044;-53
2022/12/04 11:27:07;;;;;;;21.30;10.80;;;2.60;99.90;;;;;;5053393;28;20079;-53
2022/12/04 11:29:39;;;;;;;21.48;10.45;;;2.60;99.90;;;;;;5053427;28;20088;-54
2022/12/04 11:32:13;;;;;;;22.67;11.52;;;2.60;99.90;;;;;;5035977;28;20099;-52
2022/12/04 11:34:40;;;;;;;22.33;11.05;;;2.50;99.90;;;;;;5053352;28;20041;-53
2022/12/04 11:37:18;;;;;;;20.23;10.48;;;2.60;99.90;;;;;;5035352;28;20056;-56
2022/12/04 11:39:44;;;;;;;22.80;10.90;;;2.60;99.90;;;;;;5053273;28;20405;-56
2022/12/04 11:42:12;;;;;;;21.05;11.13;;;2.60;99.90;;;;;;5053422;28;20039;-55
2022/12/04 11:44:48;;;;;;;21.98;9.65;;;2.60;99.90;;;;;;5053216;28;20869;-53
2022/12/04 11:47:19;;;;;;;21.00;10.88;;;2.70;99.90;;;;;;5053422;28;20401;-51
2022/12/04 11:49:56;;;;;;;18.75;9.82;;;2.60;99.90;;;;;;5035378;28;20114;-53
2022/12/04 11:52:25;;;;;;;23.00;10.65;;;2.60;99.90;;;;;;5053432;28;20053;-54
2022/12/04 11:55:01;;;;;;;22.60;10.52;;;2.60;99.90;;;;;;5053349;28;20044;-54
2022/12/04 11:57:50;;;;;;;23.17;11.52;;;2.60;99.90;;;;;;5037600;28;20385;-54
2022/12/04 12:00:20;;;;;;;22.73;10.55;;;2.60;99.90;;;;;;5033037;28;20494;-53
2022/12/04 12:03:02;;;;;;;24.08;11.30;;;2.60;99.90;;;;;;5033106;28;20045;-56
2022/12/04 12:05:59;;;;;;;20.90;9.90;;;2.60;99.90;;;;;;5032951;28;20483;-55
2022/12/04 12:08:28;;;;;;;29.27;12.98;;;2.60;99.90;;;;;;5037629;28;20037;-55
2022/12/04 12:11:20;;;;;;;24.42;11.95;;;2.50;99.90;;;;;;5052980;28;20436;-53
2022/12/04 12:14:08;;;;;;;23.58;12.32;;;2.60;99.90;;;;;;5052507;28;20041;-52
2022/12/04 12:16:40;;;;;;;25.90;12.05;;;2.60;99.90;;;;;;5034474;28;20049;-51
2022/12/04 12:19:47;;;;;;;24.98;11.32;;;2.60;99.90;;;;;;5052556;28;20048;-51
2022/12/04 12:22:37;;;;;;;26.77;12.73;;;2.60;99.90;;;;;;4971358;28;20431;-51
2022/12/04 12:25:11;;;;;;;24.88;11.40;;;2.60;99.90;;;;;;4971201;28;20399;-52
2022/12/04 12:28:03;;;;;;;23.50;11.95;;;2.60;99.90;;;;;;5028519;28;20053;-54
2022/12/04 12:30:45;;;;;;;24.60;11.95;;;2.60;99.90;;;;;;5052558;28;20049;-56
2022/12/04 12:33:18;;;;;;;27.15;12.60;;;2.60;99.90;;;;;;5034650;28;20145;-52
2022/12/04 12:35:55;;;;;;;;;;;2.60;99.90;;;;;;5052766;28;20095;-56
2022/12/04 12:38:42;;;;;;;26.52;11.93;;;2.60;99.90;;;;;;5052538;28;20277;-55
2022/12/04 12:41:18;;;;;;;27.83;13.07;;;2.70;99.90;;;;;;5034493;28;20052;-56
2022/12/04 12:43:52;;;;;;;22.83;10.95;;;2.60;99.90;;;;;;5052288;28;20052;-55
2022/12/04 12:46:30;;;;;;;28.65;12.52;;;2.70;99.90;;;;;;5051835;28;20537;-52
2022/12/04 12:49:13;;;;;;;33.05;14.50;;;2.60;99.90;;;;;;5052022;28;20045;-54
2022/12/04 12:52:05;;;;;;;24.95;11.35;;;2.70;99.90;;;;;;5034126;28;20080;-53
2022/12/04 12:55:01;;;;;;;27.27;12.23;;;2.60;99.90;;;;;;5051920;28;20436;-52
2022/12/04 12:57:30;;;;;;;26.40;13.05;;;2.70;99.90;;;;;;5052059;28;20358;-54
2022/12/04 13:00:07;;;;;;;27.25;13.20;;;2.60;99.90;;;;;;5052180;28;20047;-55
2022/12/04 13:02:41;;;;;;;27.63;12.88;;;2.60;99.90;;;;;;5051883;28;20593;-54
2022/12/04 13:05:09;;;;;;;24.52;12.20;;;2.70;99.90;;;;;;5033469;28;20048;-56
2022/12/04 13:07:49;;;;;;;26.38;12.55;;;2.70;99.90;;;;;;5052059;28;20045;-53
2022/12/04 13:10:27;;;;;;;28.42;13.85;;;2.70;99.90;;;;;;5051989;28;20408;-55